Time,TemperatureF,DewpointF,PressureIn,WindDirection,WindDirectionDegrees,WindSpeedMPH,WindSpeedGustMPH,Humidity,HourlyPrecipIn,Conditions,Clouds,dailyrainin,SoftwareType,DateUTC
2013-01-06 00:14:00,27.0,22.3,30.14,ENE,67,0.0,-999.0,82,-99.99,,,0.00,Acu-Link.com,2013-01-06 05:14:00,
2013-01-06 00:29:00,27.0,22.0,30.14,SSE,157,0.0,-999.0,81,-99.99,,,0.00,Acu-Link.com,2013-01-06 05:29:00,
2013-01-06 00:44:00,27.1,22.1,30.13,SE,135,0.0,-999.0,81,-99.99,,,0.00,Acu-Link.com,2013-01-06 05:44:00,
2013-01-06 00:59:00,27.1,22.3,30.12,ENE,67,0.0,-999.0,82,-99.99,,,0.00,Acu-Link.com,2013-01-06 05:59:00,
2013-01-06 01:14:00,27.0,22.5,30.12,NE,45,0.0,-999.0,83,-99.99,,,0.00,Acu-Link.com,2013-01-06 06:14:00,
2013-01-06 01:29:00,27.0,22.5,30.11,West,270,0.0,-999.0,83,-99.99,,,0.00,Acu-Link.com,2013-01-06 06:29:00,
2013-01-06 01:44:00,27.0,22.8,30.11,South,180,0.0,-999.0,84,-99.99,,,0.00,Acu-Link.com,2013-01-06 06:44:00,
2013-01-06 01:59:00,27.0,22.8,30.12,ENE,67,0.0,-999.0,84,-99.99,,,0.00,Acu-Link.com,2013-01-06 06:59:00,
2013-01-06 02:14:00,27.0,22.5,30.12,ENE,67,0.0,-999.0,83,-99.99,,,0.00,Acu-Link.com,2013-01-06 07:14:00,
2013-01-06 02:30:00,27.0,22.8,30.11,ENE,67,0.0,-999.0,84,-99.99,,,0.00,Acu-Link.com,2013-01-06 07:30:00,
2013-01-06 02:45:00,27.0,23.4,30.11,SE,135,0.0,-999.0,86,-99.99,,,0.00,Acu-Link.com,2013-01-06 07:45:00,
2013-01-06 03:00:00,27.0,22.8,30.11,SE,135,0.0,-999.0,84,-99.99,,,0.00,Acu-Link.com,2013-01-06 08:00:00,
2013-01-06 03:15:00,27.0,23.1,30.11,East,90,0.0,-999.0,85,-99.99,,,0.00,Acu-Link.com,2013-01-06 08:15:00,
2013-01-06 03:30:00,27.0,23.1,30.10,ESE,112,0.0,-999.0,85,-99.99,,,0.00,Acu-Link.com,2013-01-06 08:30:00,
2013-01-06 03:45:00,27.0,22.8,30.09,SSE,157,0.0,-999.0,84,-99.99,,,0.00,Acu-Link.com,2013-01-06 08:45:00,
2013-01-06 04:00:00,26.8,22.9,30.09,SE,135,0.0,-999.0,85,-99.99,,,0.00,Acu-Link.com,2013-01-06 09:00:00,
2013-01-06 04:15:00,26.8,22.9,30.08,NE,45,0.0,-999.0,85,-99.99,,,0.00,Acu-Link.com,2013-01-06 09:15:00,
2013-01-06 04:30:00,26.6,23.3,30.07,ESE,112,0.0,-999.0,87,-99.99,,,0.00,Acu-Link.com,2013-01-06 09:30:00,
2013-01-06 04:45:00,26.6,23.3,30.07,SSE,157,0.0,-999.0,87,-99.99,,,0.00,Acu-Link.com,2013-01-06 09:45:00,
2013-01-06 05:01:00,26.4,22.8,30.06,ESE,112,0.0,-999.0,86,-99.99,,,0.00,Acu-Link.com,2013-01-06 10:01:00,
2013-01-06 05:16:00,26.4,23.1,30.06,ESE,112,0.0,-999.0,87,-99.99,,,0.00,Acu-Link.com,2013-01-06 10:16:00,
2013-01-06 05:31:00,26.4,22.8,30.05,SSE,157,2.7,-999.0,86,-99.99,,,0.00,Acu-Link.com,2013-01-06 10:31:00,
2013-01-06 05:46:00,26.6,23.0,30.05,SE,135,1.1,-999.0,86,-99.99,,,0.00,Acu-Link.com,2013-01-06 10:46:00,
2013-01-06 06:01:00,26.4,22.8,30.05,ESE,112,0.0,-999.0,86,-99.99,,,0.00,Acu-Link.com,2013-01-06 11:01:00,
2013-01-06 06:16:00,26.4,23.1,30.05,ESE,112,0.0,-999.0,87,-99.99,,,0.00,Acu-Link.com,2013-01-06 11:16:00,
2013-01-06 06:31:00,26.4,22.8,30.05,East,90,0.0,-999.0,86,-99.99,,,0.00,Acu-Link.com,2013-01-06 11:31:00,
2013-01-06 06:46:00,26.4,22.8,30.06,ESE,112,0.0,-999.0,86,-99.99,,,0.00,Acu-Link.com,2013-01-06 11:46:00,
2013-01-06 07:01:00,26.4,22.8,30.05,ESE,112,0.0,-999.0,86,-99.99,,,0.00,Acu-Link.com,2013-01-06 12:01:00,
2013-01-06 07:17:00,26.4,22.8,30.06,ESE,112,0.0,-999.0,86,-99.99,,,0.00,Acu-Link.com,2013-01-06 12:17:00,
2013-01-06 07:32:00,26.4,22.8,30.06,ESE,112,0.0,-999.0,86,-99.99,,,0.00,Acu-Link.com,2013-01-06 12:32:00,
2013-01-06 07:47:00,26.6,23.0,30.06,East,90,0.0,-999.0,86,-99.99,,,0.00,Acu-Link.com,2013-01-06 12:47:00,
2013-01-06 08:02:00,26.8,22.9,30.06,ESE,112,0.0,-999.0,85,-99.99,,,0.00,Acu-Link.com,2013-01-06 13:02:00,
2013-01-06 08:17:00,27.0,23.1,30.05,SE,135,0.0,-999.0,85,-99.99,,,0.00,Acu-Link.com,2013-01-06 13:17:00,
2013-01-06 08:32:00,27.5,23.3,30.06,SW,225,0.0,-999.0,84,-99.99,,,0.00,Acu-Link.com,2013-01-06 13:32:00,
2013-01-06 08:47:00,27.9,23.4,30.06,SSE,157,0.0,-999.0,83,-99.99,,,0.00,Acu-Link.com,2013-01-06 13:47:00,
2013-01-06 09:02:00,28.8,23.4,30.06,SSE,157,2.2,-999.0,80,-99.99,,,0.00,Acu-Link.com,2013-01-06 14:02:00,
2013-01-06 09:18:00,29.5,23.5,30.06,ESE,112,0.0,-999.0,78,-99.99,,,0.00,Acu-Link.com,2013-01-06 14:18:00,
2013-01-06 09:33:00,30.0,23.4,30.07,South,180,2.2,-999.0,76,-99.99,,,0.00,Acu-Link.com,2013-01-06 14:33:00,
2013-01-06 09:48:00,31.3,23.3,30.07,West,270,2.7,-999.0,72,-99.99,,,0.00,Acu-Link.com,2013-01-06 14:48:00,
2013-01-06 10:03:00,31.3,23.3,30.06,WNW,292,0.0,-999.0,72,-99.99,,,0.00,Acu-Link.com,2013-01-06 15:03:00,
2013-01-06 10:18:00,31.1,23.1,30.06,West,270,0.0,-999.0,72,-99.99,,,0.00,Acu-Link.com,2013-01-06 15:18:00,
2013-01-06 10:33:00,31.6,23.6,30.05,WSW,247,0.0,-999.0,72,-99.99,,,0.00,Acu-Link.com,2013-01-06 15:33:00,
2013-01-06 10:48:00,31.8,23.8,30.05,SSE,157,0.0,-999.0,72,-99.99,,,0.00,Acu-Link.com,2013-01-06 15:48:00,
2013-01-06 11:03:00,34.0,24.9,30.04,West,270,0.0,-999.0,69,-99.99,,,0.00,Acu-Link.com,2013-01-06 16:03:00,
2013-01-06 11:18:00,33.6,24.9,30.03,East,90,1.7,-999.0,70,-99.99,,,0.00,Acu-Link.com,2013-01-06 16:18:00,
2013-01-06 11:33:00,35.2,25.4,30.02,East,90,0.0,-999.0,67,-99.99,,,0.00,Acu-Link.com,2013-01-06 16:33:00,
2013-01-06 11:49:00,36.1,25.9,30.02,NE,45,0.0,-999.0,66,-99.99,,,0.00,Acu-Link.com,2013-01-06 16:49:00,
2013-01-06 12:04:00,37.6,26.9,30.00,West,270,2.2,-999.0,65,-99.99,,,0.00,Acu-Link.com,2013-01-06 17:04:00,
2013-01-06 12:19:00,38.5,26.6,30.00,ESE,112,0.0,-999.0,62,-99.99,,,0.00,Acu-Link.com,2013-01-06 17:19:00,
2013-01-06 12:34:00,39.0,27.1,29.99,South,180,0.0,-999.0,62,-99.99,,,0.00,Acu-Link.com,2013-01-06 17:34:00,
2013-01-06 12:49:00,38.8,26.5,29.98,WNW,292,2.2,-999.0,61,-99.99,,,0.00,Acu-Link.com,2013-01-06 17:49:00,
2013-01-06 13:04:00,38.8,26.5,29.97,ESE,112,4.2,-999.0,61,-99.99,,,0.00,Acu-Link.com,2013-01-06 18:04:00,
2013-01-06 13:19:00,40.8,27.2,29.96,SSE,157,4.7,-999.0,58,-99.99,,,0.00,Acu-Link.com,2013-01-06 18:19:00,
2013-01-06 13:34:00,39.7,26.6,29.95,SW,225,3.7,-999.0,59,-99.99,,,0.00,Acu-Link.com,2013-01-06 18:34:00,
2013-01-06 13:49:00,40.3,27.1,29.95,WSW,247,5.3,-999.0,59,-99.99,,,0.00,Acu-Link.com,2013-01-06 18:49:00,
2013-01-06 14:05:00,39.7,27.0,29.94,SSE,157,2.2,-999.0,60,-99.99,,,0.00,Acu-Link.com,2013-01-06 19:05:00,
2013-01-06 14:20:00,40.6,26.6,29.95,West,270,4.7,-999.0,57,-99.99,,,0.00,Acu-Link.com,2013-01-06 19:20:00,
2013-01-06 14:35:00,39.7,26.2,29.95,West,270,8.3,-999.0,58,-99.99,,,0.00,Acu-Link.com,2013-01-06 19:35:00,
2013-01-06 14:50:00,39.6,26.5,29.95,East,90,2.7,-999.0,59,-99.99,,,0.00,Acu-Link.com,2013-01-06 19:50:00,
2013-01-06 15:05:00,39.6,26.9,29.96,WNW,292,3.7,-999.0,60,-99.99,,,0.00,Acu-Link.com,2013-01-06 20:05:00,
2013-01-06 15:20:00,39.4,26.7,29.96,South,180,0.0,-999.0,60,-99.99,,,0.00,Acu-Link.com,2013-01-06 20:20:00,
2013-01-06 15:35:00,38.8,27.7,29.96,West,270,1.7,-999.0,64,-99.99,,,0.00,Acu-Link.com,2013-01-06 20:35:00,
2013-01-06 15:50:00,38.5,28.1,29.96,SW,225,2.2,-999.0,66,-99.99,,,0.00,Acu-Link.com,2013-01-06 20:50:00,
2013-01-06 16:05:00,38.1,28.5,29.96,West,270,4.2,-999.0,68,-99.99,,,0.00,Acu-Link.com,2013-01-06 21:05:00,
2013-01-06 16:21:00,37.9,29.0,29.97,ENE,67,2.2,-999.0,70,-99.99,,,0.00,Acu-Link.com,2013-01-06 21:21:00,
2013-01-06 16:36:00,37.6,29.4,29.97,West,270,3.2,-999.0,72,-99.99,,,0.00,Acu-Link.com,2013-01-06 21:36:00,
2013-01-06 16:51:00,37.2,29.4,29.97,WSW,247,0.0,-999.0,73,-99.99,,,0.00,Acu-Link.com,2013-01-06 21:51:00,
2013-01-06 17:06:00,37.0,29.5,29.98,ENE,67,0.0,-999.0,74,-99.99,,,0.00,Acu-Link.com,2013-01-06 22:06:00,
2013-01-06 17:21:00,36.7,29.5,29.98,South,180,0.0,-999.0,75,-99.99,,,0.00,Acu-Link.com,2013-01-06 22:21:00,
2013-01-06 17:36:00,36.5,29.7,29.98,NE,45,0.0,-999.0,76,-99.99,,,0.00,Acu-Link.com,2013-01-06 22:36:00,
2013-01-06 17:51:00,35.8,29.9,29.99,NW,315,0.0,-999.0,79,-99.99,,,0.00,Acu-Link.com,2013-01-06 22:51:00,
2013-01-06 18:07:00,35.1,29.9,29.99,NE,45,0.0,-999.0,81,-99.99,,,0.00,Acu-Link.com,2013-01-06 23:07:00,
2013-01-06 18:22:00,34.7,30.1,30.00,East,90,0.0,-999.0,83,-99.99,,,0.00,Acu-Link.com,2013-01-06 23:22:00,
2013-01-06 18:37:00,34.0,30.0,30.00,ENE,67,0.0,-999.0,85,-99.99,,,0.00,Acu-Link.com,2013-01-06 23:37:00,
2013-01-06 18:52:00,33.6,30.2,30.00,NE,45,0.0,-999.0,87,-99.99,,,0.00,Acu-Link.com,2013-01-06 23:52:00,
2013-01-06 19:07:00,33.3,30.1,30.01,SE,135,0.0,-999.0,88,-99.99,,,0.00,Acu-Link.com,2013-01-07 00:07:00,
2013-01-06 19:22:00,33.1,30.2,30.01,South,180,0.0,-999.0,89,-99.99,,,0.00,Acu-Link.com,2013-01-07 00:22:00,
2013-01-06 19:37:00,32.9,30.3,30.01,ESE,112,0.0,-999.0,90,-99.99,,,0.00,Acu-Link.com,2013-01-07 00:37:00,
2013-01-06 20:07:00,32.5,30.2,30.02,NE,45,0.0,-999.0,91,-99.99,,,0.00,Acu-Link.com,2013-01-07 01:07:00,
2013-01-06 20:23:00,32.5,30.4,30.02,SE,135,0.0,-999.0,92,-99.99,,,0.00,Acu-Link.com,2013-01-07 01:23:00,
2013-01-06 20:38:00,32.4,30.3,30.02,NNE,22,0.0,-999.0,92,-99.99,,,0.00,Acu-Link.com,2013-01-07 01:38:00,
2013-01-06 20:53:00,32.2,30.4,30.03,West,270,0.0,-999.0,93,-99.99,,,0.00,Acu-Link.com,2013-01-07 01:53:00,
2013-01-06 21:08:00,32.2,30.4,30.03,SE,135,0.0,-999.0,93,-99.99,,,0.00,Acu-Link.com,2013-01-07 02:08:00,
2013-01-06 21:23:00,32.0,30.5,30.03,ESE,112,0.0,-999.0,94,-99.99,,,0.00,Acu-Link.com,2013-01-07 02:23:00,
2013-01-06 21:38:00,32.0,30.5,30.04,NNE,22,0.0,-999.0,94,-99.99,,,0.00,Acu-Link.com,2013-01-07 02:38:00,
2013-01-06 21:53:00,31.8,30.5,30.04,SSE,157,0.0,-999.0,95,-99.99,,,0.00,Acu-Link.com,2013-01-07 02:53:00,
2013-01-06 22:08:00,31.6,30.1,30.04,East,90,0.0,-999.0,94,-99.99,,,0.00,Acu-Link.com,2013-01-07 03:08:00,
2013-01-06 22:23:00,31.3,30.0,30.04,ESE,112,0.0,-999.0,95,-99.99,,,0.00,Acu-Link.com,2013-01-07 03:23:00,
2013-01-06 22:39:00,30.7,29.7,30.04,ENE,67,0.0,-999.0,96,-99.99,,,0.00,Acu-Link.com,2013-01-07 03:39:00,
2013-01-06 22:54:00,30.6,29.6,30.05,ENE,67,0.0,-999.0,96,-99.99,,,0.00,Acu-Link.com,2013-01-07 03:54:00,
2013-01-06 23:09:00,30.9,29.9,30.06,East,90,0.0,-999.0,96,-99.99,,,0.00,Acu-Link.com,2013-01-07 04:09:00,
2013-01-06 23:24:00,31.5,30.2,30.07,NW,315,0.0,-999.0,95,-99.99,,,0.00,Acu-Link.com,2013-01-07 04:24:00,
2013-01-06 23:39:00,31.5,30.0,30.07,West,270,0.0,-999.0,94,-99.99,,,0.00,Acu-Link.com,2013-01-07 04:39:00,
2013-01-06 23:54:00,31.5,30.2,30.08,NW,315,0.0,-999.0,95,-99.99,,,0.00,Acu-Link.com,2013-01-07 04:54:00,